OOCL Dalian — VRFW9 — position and weather

sailwx.info

Track history (hours):
 
Tides and Currents Weather Stations Pressure Air Temp Water Temp Dewpoint Dewpoint Depression Visibility Wind Speed Wind Dir Waves Ship Positions

OOCL Dalian

Last reported at 2017-Dec-08 20:19 UTC. Time now 2017-Dec-12 17:49 UTC.
Position N 01°14' E 103°25'.

Length 260 m; draft 12.2 m.

Type: Cargo ship. MMSI: 477627800.

Date/timePositionNaut miles runAvg speedWind from/ knotsBaromVisibWave heightAir tempDewpointWater temp
2017-Dec-08 20:19N 01°14' E 103°25'3 8.4
2017-Dec-08 20:00N 01°14' E 103°27'5 8.6
2017-Dec-08 19:27N 01°12' E 103°32'4 8.9
2017-Dec-08 18:59N 01°12' E 103°36'4 7.4
2017-Dec-08 18:30N 01°12' E 103°39'510.6
2017-Dec-08 18:01N 01°15' E 103°44'3 6.5
2017-Dec-08 17:30N 01°16' E 103°47'0 0.4
2017-Dec-08 16:55N 01°17' E 103°47'0 0.0
2017-Dec-08 16:28N 01°17' E 103°47'0 0.0
2017-Dec-08 15:58N 01°17' E 103°47'0 0.1
2017-Dec-08 15:28N 01°17' E 103°47'0 0.1
2017-Dec-08 14:58N 01°17' E 103°47'0 0.0
2017-Dec-08 14:28N 01°17' E 103°47'0 0.0
2017-Dec-08 13:58N 01°17' E 103°47'0 0.0
2017-Dec-08 13:28N 01°17' E 103°47'0 0.0
2017-Dec-08 12:58N 01°17' E 103°47'0 0.0
2017-Dec-08 12:28N 01°17' E 103°47'0 0.0
2017-Dec-08 11:58N 01°17' E 103°47'0 0.0
2017-Dec-08 11:28N 01°17' E 103°47'0 0.0
2017-Dec-08 10:58N 01°17' E 103°47'0 0.0
2017-Dec-08 10:28N 01°17' E 103°47'0 0.0
2017-Dec-08 09:58N 01°17' E 103°47'0 0.0
2017-Dec-08 09:28N 01°17' E 103°47'0 0.0
2017-Dec-08 08:58N 01°17' E 103°47'0 0.0
2017-Dec-08 08:28N 01°17' E 103°47'0 0.0
2017-Dec-08 07:58N 01°17' E 103°47'0 0.1
2017-Dec-08 07:28N 01°17' E 103°47'0 0.0
2017-Dec-08 06:58N 01°17' E 103°47'0 0.1
2017-Dec-08 06:28N 01°17' E 103°47'0 0.1
2017-Dec-08 05:58N 01°17' E 103°47'0 0.1
2017-Dec-08 05:28N 01°17' E 103°47'0 0.0
2017-Dec-08 04:58N 01°17' E 103°47'0 0.0
2017-Dec-08 04:28N 01°17' E 103°47'0 0.0
2017-Dec-08 03:58N 01°17' E 103°47'0 0.1
2017-Dec-08 03:28N 01°17' E 103°47'0 0.9
2017-Dec-08 03:00N 01°16' E 103°47'3 6.8
2017-Dec-08 02:30N 01°13' E 103°48'510.9
2017-Dec-08 02:00N 01°14' E 103°54'4 8.1
2017-Dec-08 01:30N 01°15' E 103°57'5 9.7
2017-Dec-08 00:58N 01°16' E 104°02'510.6
2017-Dec-08 00:28N 01°17' E 104°08'1410.2
2017-Dec-07 23:03N 01°21' E 104°22'110.2
2017-Dec-07 22:55N 01°21' E 104°23'105 9.6
2017-Dec-07 12:00N 02°54' E 105°12'   050 / 101013.010.8 28.022.427.0
2017-Dec-03 12:00N 21°06' E 116°12'   050 / 261016.010.8 20.016.929.0
Track history (hours):
 
Tides and Currents Weather Stations Pressure Air Temp Water Temp Dewpoint Dewpoint Depression Visibility Wind Speed Wind Dir Waves Ship Positions

OOCL Dalian

Last reported at 2017-Dec-08 20:19 UTC. Time now 2017-Dec-12 17:49 UTC.
Position N 01°14' E 103°25'.

Length 260 m; draft 12.2 m.

Type: Cargo ship. MMSI: 477627800.

Date/timePositionNaut miles runAvg speedWind from/ knotsBaromVisibWave heightAir tempDewpointWater temp
2017-Dec-08 20:19N 01°14' E 103°25'3 8.4
2017-Dec-08 20:00N 01°14' E 103°27'5 8.6
2017-Dec-08 19:27N 01°12' E 103°32'4 8.9
2017-Dec-08 18:59N 01°12' E 103°36'4 7.4
2017-Dec-08 18:30N 01°12' E 103°39'510.6
2017-Dec-08 18:01N 01°15' E 103°44'3 6.5
2017-Dec-08 17:30N 01°16' E 103°47'0 0.4
2017-Dec-08 16:55N 01°17' E 103°47'0 0.0
2017-Dec-08 16:28N 01°17' E 103°47'0 0.0
2017-Dec-08 15:58N 01°17' E 103°47'0 0.1
2017-Dec-08 15:28N 01°17' E 103°47'0 0.1
2017-Dec-08 14:58N 01°17' E 103°47'0 0.0
2017-Dec-08 14:28N 01°17' E 103°47'0 0.0
2017-Dec-08 13:58N 01°17' E 103°47'0 0.0
2017-Dec-08 13:28N 01°17' E 103°47'0 0.0
2017-Dec-08 12:58N 01°17' E 103°47'0 0.0
2017-Dec-08 12:28N 01°17' E 103°47'0 0.0
2017-Dec-08 11:58N 01°17' E 103°47'0 0.0
2017-Dec-08 11:28N 01°17' E 103°47'0 0.0
2017-Dec-08 10:58N 01°17' E 103°47'0 0.0
2017-Dec-08 10:28N 01°17' E 103°47'0 0.0
2017-Dec-08 09:58N 01°17' E 103°47'0 0.0
2017-Dec-08 09:28N 01°17' E 103°47'0 0.0
2017-Dec-08 08:58N 01°17' E 103°47'0 0.0
2017-Dec-08 08:28N 01°17' E 103°47'0 0.0
2017-Dec-08 07:58N 01°17' E 103°47'0 0.1
2017-Dec-08 07:28N 01°17' E 103°47'0 0.0
2017-Dec-08 06:58N 01°17' E 103°47'0 0.1
2017-Dec-08 06:28N 01°17' E 103°47'0 0.1
2017-Dec-08 05:58N 01°17' E 103°47'0 0.1
2017-Dec-08 05:28N 01°17' E 103°47'0 0.0
2017-Dec-08 04:58N 01°17' E 103°47'0 0.0
2017-Dec-08 04:28N 01°17' E 103°47'0 0.0
2017-Dec-08 03:58N 01°17' E 103°47'0 0.1
2017-Dec-08 03:28N 01°17' E 103°47'0 0.9
2017-Dec-08 03:00N 01°16' E 103°47'3 6.8
2017-Dec-08 02:30N 01°13' E 103°48'510.9
2017-Dec-08 02:00N 01°14' E 103°54'4 8.1
2017-Dec-08 01:30N 01°15' E 103°57'5 9.7
2017-Dec-08 00:58N 01°16' E 104°02'510.6
2017-Dec-08 00:28N 01°17' E 104°08'1410.2
2017-Dec-07 23:03N 01°21' E 104°22'110.2
2017-Dec-07 22:55N 01°21' E 104°23'105 9.6
2017-Dec-07 12:00N 02°54' E 105°12'   050 / 101013.010.8 28.022.427.0
2017-Dec-03 12:00N 21°06' E 116°12'   050 / 261016.010.8 20.016.929.0

Dump ship's entire track history